sensor_id;sensor_type;location;lat;lon;timestamp;P1;durP1;ratioP1;P2;durP2;ratioP2
52668;SDS011;59898;52.786;6.892;2022-10-16T00:02:28;7.13;;;3.30;;
52668;SDS011;59898;52.786;6.892;2022-10-16T00:05:49;6.38;;;3.05;;
52668;SDS011;59898;52.786;6.892;2022-10-16T00:09:10;6.05;;;2.70;;
52668;SDS011;59898;52.786;6.892;2022-10-16T00:12:31;5.43;;;2.65;;
52668;SDS011;59898;52.786;6.892;2022-10-16T00:15:52;4.68;;;2.70;;
52668;SDS011;59898;52.786;6.892;2022-10-16T00:19:15;5.75;;;3.22;;
52668;SDS011;59898;52.786;6.892;2022-10-16T00:22:36;6.32;;;2.72;;
52668;SDS011;59898;52.786;6.892;2022-10-16T00:25:57;6.20;;;3.28;;
52668;SDS011;59898;52.786;6.892;2022-10-16T00:29:20;7.15;;;2.67;;
52668;SDS011;59898;52.786;6.892;2022-10-16T00:32:41;5.53;;;2.65;;
52668;SDS011;59898;52.786;6.892;2022-10-16T00:36:02;6.80;;;3.03;;
52668;SDS011;59898;52.786;6.892;2022-10-16T00:39:24;5.20;;;2.95;;
52668;SDS011;59898;52.786;6.892;2022-10-16T00:42:45;7.05;;;2.97;;
52668;SDS011;59898;52.786;6.892;2022-10-16T00:46:27;4.43;;;2.55;;
52668;SDS011;59898;52.786;6.892;2022-10-16T00:50:07;5.85;;;3.17;;
52668;SDS011;59898;52.786;6.892;2022-10-16T00:53:31;10.48;;;2.92;;
52668;SDS011;59898;52.786;6.892;2022-10-16T00:56:52;5.15;;;2.65;;
52668;SDS011;59898;52.786;6.892;2022-10-16T01:00:16;7.77;;;4.07;;
52668;SDS011;59898;52.786;6.892;2022-10-16T01:03:39;7.28;;;3.10;;
52668;SDS011;59898;52.786;6.892;2022-10-16T01:07:03;5.50;;;3.60;;
52668;SDS011;59898;52.786;6.892;2022-10-16T01:10:38;4.55;;;2.70;;
52668;SDS011;59898;52.786;6.892;2022-10-16T01:14:00;5.72;;;2.95;;
52668;SDS011;59898;52.786;6.892;2022-10-16T01:17:34;9.43;;;3.20;;
52668;SDS011;59898;52.786;6.892;2022-10-16T01:21:06;5.65;;;2.67;;
52668;SDS011;59898;52.786;6.892;2022-10-16T01:24:40;6.78;;;3.72;;
52668;SDS011;59898;52.786;6.892;2022-10-16T01:28:04;5.47;;;3.05;;
52668;SDS011;59898;52.786;6.892;2022-10-16T01:31:29;8.68;;;2.90;;
52668;SDS011;59898;52.786;6.892;2022-10-16T01:34:57;8.40;;;3.17;;
52668;SDS011;59898;52.786;6.892;2022-10-16T01:41:54;9.07;;;3.47;;
52668;SDS011;59898;52.786;6.892;2022-10-16T01:45:24;4.70;;;2.70;;
52668;SDS011;59898;52.786;6.892;2022-10-16T01:48:45;8.55;;;3.28;;
52668;SDS011;59898;52.786;6.892;2022-10-16T01:52:08;9.40;;;3.10;;
52668;SDS011;59898;52.786;6.892;2022-10-16T01:55:36;4.43;;;2.95;;
52668;SDS011;59898;52.786;6.892;2022-10-16T01:59:03;8.05;;;3.40;;
52668;SDS011;59898;52.786;6.892;2022-10-16T02:02:27;6.63;;;3.00;;
52668;SDS011;59898;52.786;6.892;2022-10-16T02:05:51;5.35;;;2.97;;
52668;SDS011;59898;52.786;6.892;2022-10-16T02:09:15;4.38;;;2.75;;
52668;SDS011;59898;52.786;6.892;2022-10-16T02:12:37;8.93;;;3.15;;
52668;SDS011;59898;52.786;6.892;2022-10-16T02:16:02;5.65;;;3.10;;
52668;SDS011;59898;52.786;6.892;2022-10-16T02:19:23;7.32;;;3.10;;
52668;SDS011;59898;52.786;6.892;2022-10-16T02:22:45;5.50;;;2.53;;
52668;SDS011;59898;52.786;6.892;2022-10-16T02:26:08;5.00;;;2.67;;
52668;SDS011;59898;52.786;6.892;2022-10-16T02:29:35;4.32;;;2.80;;
52668;SDS011;59898;52.786;6.892;2022-10-16T02:33:00;5.05;;;2.33;;
52668;SDS011;59898;52.786;6.892;2022-10-16T02:36:25;5.45;;;2.63;;
52668;SDS011;59898;52.786;6.892;2022-10-16T02:39:46;8.10;;;2.90;;
52668;SDS011;59898;52.786;6.892;2022-10-16T02:43:07;5.38;;;2.97;;
52668;SDS011;59898;52.786;6.892;2022-10-16T02:46:29;5.05;;;2.72;;
52668;SDS011;59898;52.786;6.892;2022-10-16T02:49:50;5.93;;;2.50;;
52668;SDS011;59898;52.786;6.892;2022-10-16T02:53:11;7.57;;;2.75;;
52668;SDS011;59898;52.786;6.892;2022-10-16T02:56:31;5.05;;;2.55;;
52668;SDS011;59898;52.786;6.892;2022-10-16T02:59:52;3.70;;;2.67;;
52668;SDS011;59898;52.786;6.892;2022-10-16T03:03:13;6.05;;;2.85;;
52668;SDS011;59898;52.786;6.892;2022-10-16T03:06:34;4.65;;;2.65;;
52668;SDS011;59898;52.786;6.892;2022-10-16T03:09:54;6.15;;;3.13;;
52668;SDS011;59898;52.786;6.892;2022-10-16T03:13:15;5.22;;;2.47;;
52668;SDS011;59898;52.786;6.892;2022-10-16T03:16:36;11.23;;;3.67;;
52668;SDS011;59898;52.786;6.892;2022-10-16T03:19:57;3.50;;;2.38;;
52668;SDS011;59898;52.786;6.892;2022-10-16T03:23:17;5.50;;;2.78;;
52668;SDS011;59898;52.786;6.892;2022-10-16T03:26:38;5.35;;;2.47;;
52668;SDS011;59898;52.786;6.892;2022-10-16T03:29:59;4.50;;;2.67;;
52668;SDS011;59898;52.786;6.892;2022-10-16T03:33:19;4.28;;;2.60;;
52668;SDS011;59898;52.786;6.892;2022-10-16T03:36:40;8.30;;;3.42;;
52668;SDS011;59898;52.786;6.892;2022-10-16T03:40:01;5.50;;;3.05;;
52668;SDS011;59898;52.786;6.892;2022-10-16T03:43:21;5.50;;;3.13;;
52668;SDS011;59898;52.786;6.892;2022-10-16T03:46:42;4.60;;;3.15;;
52668;SDS011;59898;52.786;6.892;2022-10-16T03:50:03;9.02;;;3.25;;
52668;SDS011;59898;52.786;6.892;2022-10-16T03:53:24;8.50;;;3.30;;
52668;SDS011;59898;52.786;6.892;2022-10-16T03:56:45;5.68;;;3.28;;
52668;SDS011;59898;52.786;6.892;2022-10-16T04:00:06;7.90;;;3.50;;
52668;SDS011;59898;52.786;6.892;2022-10-16T04:03:27;4.68;;;2.97;;
52668;SDS011;59898;52.786;6.892;2022-10-16T04:06:48;6.93;;;4.05;;
52668;SDS011;59898;52.786;6.892;2022-10-16T04:10:08;4.55;;;3.10;;
52668;SDS011;59898;52.786;6.892;2022-10-16T04:13:30;5.43;;;3.60;;
52668;SDS011;59898;52.786;6.892;2022-10-16T04:16:50;5.22;;;3.63;;
52668;SDS011;59898;52.786;6.892;2022-10-16T04:20:11;7.93;;;3.80;;
52668;SDS011;59898;52.786;6.892;2022-10-16T04:23:32;5.05;;;3.53;;
52668;SDS011;59898;52.786;6.892;2022-10-16T04:26:53;4.50;;;3.53;;
52668;SDS011;59898;52.786;6.892;2022-10-16T04:30:13;6.93;;;4.38;;
52668;SDS011;59898;52.786;6.892;2022-10-16T04:33:34;8.50;;;3.67;;
52668;SDS011;59898;52.786;6.892;2022-10-16T04:36:55;5.00;;;3.40;;
52668;SDS011;59898;52.786;6.892;2022-10-16T04:40:15;9.02;;;3.97;;
52668;SDS011;59898;52.786;6.892;2022-10-16T04:43:36;7.47;;;4.35;;
52668;SDS011;59898;52.786;6.892;2022-10-16T04:46:57;8.48;;;4.13;;
52668;SDS011;59898;52.786;6.892;2022-10-16T04:50:18;9.13;;;4.65;;
52668;SDS011;59898;52.786;6.892;2022-10-16T04:53:38;7.50;;;4.30;;
52668;SDS011;59898;52.786;6.892;2022-10-16T04:56:59;5.45;;;3.72;;
52668;SDS011;59898;52.786;6.892;2022-10-16T05:00:20;6.75;;;3.90;;
52668;SDS011;59898;52.786;6.892;2022-10-16T05:03:40;6.35;;;3.83;;
52668;SDS011;59898;52.786;6.892;2022-10-16T05:07:01;5.63;;;3.85;;
52668;SDS011;59898;52.786;6.892;2022-10-16T05:10:22;6.63;;;4.20;;
52668;SDS011;59898;52.786;6.892;2022-10-16T05:13:42;7.20;;;4.25;;
52668;SDS011;59898;52.786;6.892;2022-10-16T05:17:03;6.18;;;4.10;;
52668;SDS011;59898;52.786;6.892;2022-10-16T05:20:24;10.18;;;4.32;;
52668;SDS011;59898;52.786;6.892;2022-10-16T05:23:45;6.25;;;4.22;;
52668;SDS011;59898;52.786;6.892;2022-10-16T05:27:05;4.88;;;3.45;;
52668;SDS011;59898;52.786;6.892;2022-10-16T05:30:26;9.07;;;3.85;;
52668;SDS011;59898;52.786;6.892;2022-10-16T05:33:46;7.90;;;5.57;;
52668;SDS011;59898;52.786;6.892;2022-10-16T05:37:07;4.32;;;3.83;;
52668;SDS011;59898;52.786;6.892;2022-10-16T05:40:28;6.68;;;4.60;;
52668;SDS011;59898;52.786;6.892;2022-10-16T05:43:49;7.45;;;4.00;;
52668;SDS011;59898;52.786;6.892;2022-10-16T05:47:09;6.03;;;3.80;;
52668;SDS011;59898;52.786;6.892;2022-10-16T05:50:32;6.00;;;4.13;;
52668;SDS011;59898;52.786;6.892;2022-10-16T05:53:53;5.43;;;3.50;;
52668;SDS011;59898;52.786;6.892;2022-10-16T05:57:13;6.53;;;3.78;;
52668;SDS011;59898;52.786;6.892;2022-10-16T06:00:34;5.30;;;3.80;;
52668;SDS011;59898;52.786;6.892;2022-10-16T06:03:55;7.45;;;3.60;;
52668;SDS011;59898;52.786;6.892;2022-10-16T06:07:15;5.35;;;3.88;;
52668;SDS011;59898;52.786;6.892;2022-10-16T06:10:36;5.13;;;3.17;;
52668;SDS011;59898;52.786;6.892;2022-10-16T06:13:58;4.07;;;3.30;;
52668;SDS011;59898;52.786;6.892;2022-10-16T06:17:21;5.22;;;3.40;;
52668;SDS011;59898;52.786;6.892;2022-10-16T06:20:42;4.90;;;3.67;;
52668;SDS011;59898;52.786;6.892;2022-10-16T06:24:03;4.75;;;3.13;;
52668;SDS011;59898;52.786;6.892;2022-10-16T06:27:24;7.00;;;3.70;;
52668;SDS011;59898;52.786;6.892;2022-10-16T06:30:44;6.90;;;3.92;;
52668;SDS011;59898;52.786;6.892;2022-10-16T06:34:05;6.13;;;2.78;;
52668;SDS011;59898;52.786;6.892;2022-10-16T06:37:30;5.90;;;3.13;;
52668;SDS011;59898;52.786;6.892;2022-10-16T06:40:52;7.10;;;3.45;;
52668;SDS011;59898;52.786;6.892;2022-10-16T06:44:13;7.75;;;3.13;;
52668;SDS011;59898;52.786;6.892;2022-10-16T06:47:34;4.70;;;3.33;;
52668;SDS011;59898;52.786;6.892;2022-10-16T06:50:56;6.80;;;3.42;;
52668;SDS011;59898;52.786;6.892;2022-10-16T06:54:17;4.45;;;2.83;;
52668;SDS011;59898;52.786;6.892;2022-10-16T06:57:37;5.47;;;3.20;;
52668;SDS011;59898;52.786;6.892;2022-10-16T07:00:58;4.18;;;2.50;;
52668;SDS011;59898;52.786;6.892;2022-10-16T07:04:19;6.20;;;3.45;;
52668;SDS011;59898;52.786;6.892;2022-10-16T07:07:39;3.97;;;3.15;;
52668;SDS011;59898;52.786;6.892;2022-10-16T07:11:01;5.22;;;3.22;;
52668;SDS011;59898;52.786;6.892;2022-10-16T07:14:23;6.70;;;3.35;;
52668;SDS011;59898;52.786;6.892;2022-10-16T07:17:43;4.68;;;3.20;;
52668;SDS011;59898;52.786;6.892;2022-10-16T07:24:25;5.90;;;2.85;;
52668;SDS011;59898;52.786;6.892;2022-10-16T07:27:46;4.35;;;3.13;;
52668;SDS011;59898;52.786;6.892;2022-10-16T07:31:09;8.00;;;4.05;;
52668;SDS011;59898;52.786;6.892;2022-10-16T07:34:31;6.72;;;3.10;;
52668;SDS011;59898;52.786;6.892;2022-10-16T07:37:52;6.05;;;2.70;;
52668;SDS011;59898;52.786;6.892;2022-10-16T07:41:13;5.28;;;2.85;;
52668;SDS011;59898;52.786;6.892;2022-10-16T07:44:36;5.20;;;2.20;;
52668;SDS011;59898;52.786;6.892;2022-10-16T07:47:56;4.80;;;3.13;;
52668;SDS011;59898;52.786;6.892;2022-10-16T07:51:18;4.95;;;2.55;;
52668;SDS011;59898;52.786;6.892;2022-10-16T07:54:39;4.10;;;2.75;;
52668;SDS011;59898;52.786;6.892;2022-10-16T07:58:00;6.25;;;3.40;;
52668;SDS011;59898;52.786;6.892;2022-10-16T08:01:20;8.70;;;3.67;;
52668;SDS011;59898;52.786;6.892;2022-10-16T08:04:41;7.13;;;2.85;;
52668;SDS011;59898;52.786;6.892;2022-10-16T08:08:02;7.10;;;3.25;;
52668;SDS011;59898;52.786;6.892;2022-10-16T08:11:23;7.22;;;2.53;;
52668;SDS011;59898;52.786;6.892;2022-10-16T08:14:44;5.22;;;3.15;;
52668;SDS011;59898;52.786;6.892;2022-10-16T08:18:05;6.50;;;2.67;;
52668;SDS011;59898;52.786;6.892;2022-10-16T08:21:26;6.53;;;2.97;;
52668;SDS011;59898;52.786;6.892;2022-10-16T08:24:46;3.55;;;2.60;;
52668;SDS011;59898;52.786;6.892;2022-10-16T08:28:08;4.80;;;2.42;;
52668;SDS011;59898;52.786;6.892;2022-10-16T08:31:30;4.38;;;2.50;;
52668;SDS011;59898;52.786;6.892;2022-10-16T08:34:50;4.68;;;2.45;;
52668;SDS011;59898;52.786;6.892;2022-10-16T08:38:11;4.60;;;2.30;;
52668;SDS011;59898;52.786;6.892;2022-10-16T08:48:54;5.68;;;2.50;;
52668;SDS011;59898;52.786;6.892;2022-10-16T08:52:17;6.85;;;2.33;;
52668;SDS011;59898;52.786;6.892;2022-10-16T08:59:01;3.25;;;2.45;;
52668;SDS011;59898;52.786;6.892;2022-10-16T09:02:23;6.93;;;3.30;;
52668;SDS011;59898;52.786;6.892;2022-10-16T09:12:37;3.30;;;2.03;;
52668;SDS011;59898;52.786;6.892;2022-10-16T09:19:53;6.93;;;2.45;;
52668;SDS011;59898;52.786;6.892;2022-10-16T09:23:33;5.85;;;2.47;;
52668;SDS011;59898;52.786;6.892;2022-10-16T09:26:55;4.97;;;2.50;;
52668;SDS011;59898;52.786;6.892;2022-10-16T09:30:17;7.70;;;2.50;;
52668;SDS011;59898;52.786;6.892;2022-10-16T09:33:39;5.47;;;2.58;;
52668;SDS011;59898;52.786;6.892;2022-10-16T09:37:03;5.13;;;2.38;;
52668;SDS011;59898;52.786;6.892;2022-10-16T09:40:30;4.97;;;2.30;;
52668;SDS011;59898;52.786;6.892;2022-10-16T09:43:55;5.70;;;2.40;;
52668;SDS011;59898;52.786;6.892;2022-10-16T09:47:18;7.25;;;2.17;;
52668;SDS011;59898;52.786;6.892;2022-10-16T09:50:41;7.20;;;2.45;;
52668;SDS011;59898;52.786;6.892;2022-10-16T09:57:29;7.88;;;3.28;;
52668;SDS011;59898;52.786;6.892;2022-10-16T10:00:51;6.18;;;2.50;;
52668;SDS011;59898;52.786;6.892;2022-10-16T10:04:14;7.63;;;2.40;;
52668;SDS011;59898;52.786;6.892;2022-10-16T10:07:37;8.68;;;2.83;;
52668;SDS011;59898;52.786;6.892;2022-10-16T10:11:02;10.15;;;3.72;;
52668;SDS011;59898;52.786;6.892;2022-10-16T10:17:59;9.23;;;3.90;;
52668;SDS011;59898;52.786;6.892;2022-10-16T10:21:23;11.32;;;2.70;;
52668;SDS011;59898;52.786;6.892;2022-10-16T10:24:44;6.13;;;2.72;;
52668;SDS011;59898;52.786;6.892;2022-10-16T10:28:50;7.15;;;2.30;;
52668;SDS011;59898;52.786;6.892;2022-10-16T10:32:17;7.70;;;2.90;;
52668;SDS011;59898;52.786;6.892;2022-10-16T10:35:48;5.32;;;2.55;;
52668;SDS011;59898;52.786;6.892;2022-10-16T10:39:19;6.72;;;2.35;;
52668;SDS011;59898;52.786;6.892;2022-10-16T10:46:15;12.07;;;3.42;;
52668;SDS011;59898;52.786;6.892;2022-10-16T10:57:30;9.52;;;2.90;;
52668;SDS011;59898;52.786;6.892;2022-10-16T11:01:09;6.85;;;3.00;;
52668;SDS011;59898;52.786;6.892;2022-10-16T11:08:18;6.72;;;2.80;;
52668;SDS011;59898;52.786;6.892;2022-10-16T11:11:47;8.43;;;3.00;;
52668;SDS011;59898;52.786;6.892;2022-10-16T11:22:36;11.45;;;2.70;;
52668;SDS011;59898;52.786;6.892;2022-10-16T11:26:02;8.98;;;2.90;;
52668;SDS011;59898;52.786;6.892;2022-10-16T11:29:28;11.27;;;3.45;;
52668;SDS011;59898;52.786;6.892;2022-10-16T11:36:37;9.05;;;2.88;;
52668;SDS011;59898;52.786;6.892;2022-10-16T11:40:22;8.00;;;2.78;;
52668;SDS011;59898;52.786;6.892;2022-10-16T11:44:15;9.95;;;3.97;;
52668;SDS011;59898;52.786;6.892;2022-10-16T11:55:41;11.55;;;3.47;;
52668;SDS011;59898;52.786;6.892;2022-10-16T11:59:08;7.45;;;2.58;;
52668;SDS011;59898;52.786;6.892;2022-10-16T12:02:49;8.40;;;2.60;;
52668;SDS011;59898;52.786;6.892;2022-10-16T12:09:58;11.93;;;3.13;;
52668;SDS011;59898;52.786;6.892;2022-10-16T12:13:39;8.45;;;2.60;;
52668;SDS011;59898;52.786;6.892;2022-10-16T12:17:23;4.75;;;2.30;;
52668;SDS011;59898;52.786;6.892;2022-10-16T12:20:43;7.57;;;2.95;;
52668;SDS011;59898;52.786;6.892;2022-10-16T12:28:02;8.47;;;2.93;;
52668;SDS011;59898;52.786;6.892;2022-10-16T12:31:39;10.02;;;2.60;;
52668;SDS011;59898;52.786;6.892;2022-10-16T12:35:06;7.75;;;3.55;;
52668;SDS011;59898;52.786;6.892;2022-10-16T12:38:48;5.80;;;2.58;;
52668;SDS011;59898;52.786;6.892;2022-10-16T12:45:46;8.65;;;2.50;;
52668;SDS011;59898;52.786;6.892;2022-10-16T12:52:36;6.55;;;3.58;;
52668;SDS011;59898;52.786;6.892;2022-10-16T12:56:16;8.13;;;2.58;;
52668;SDS011;59898;52.786;6.892;2022-10-16T12:59:48;6.10;;;2.30;;
52668;SDS011;59898;52.786;6.892;2022-10-16T13:06:52;7.68;;;3.05;;
52668;SDS011;59898;52.786;6.892;2022-10-16T13:10:55;8.27;;;2.53;;
52668;SDS011;59898;52.786;6.892;2022-10-16T13:18:13;7.93;;;3.00;;
52668;SDS011;59898;52.786;6.892;2022-10-16T13:21:41;8.50;;;3.08;;
52668;SDS011;59898;52.786;6.892;2022-10-16T13:28:37;8.40;;;3.20;;
52668;SDS011;59898;52.786;6.892;2022-10-16T13:32:00;7.15;;;2.28;;
52668;SDS011;59898;52.786;6.892;2022-10-16T13:35:28;7.10;;;2.33;;
52668;SDS011;59898;52.786;6.892;2022-10-16T13:39:01;9.88;;;2.60;;
52668;SDS011;59898;52.786;6.892;2022-10-16T13:42:31;6.05;;;2.47;;
52668;SDS011;59898;52.786;6.892;2022-10-16T13:46:01;11.02;;;3.03;;
52668;SDS011;59898;52.786;6.892;2022-10-16T13:49:23;7.93;;;3.28;;
52668;SDS011;59898;52.786;6.892;2022-10-16T13:52:44;7.70;;;2.13;;
52668;SDS011;59898;52.786;6.892;2022-10-16T13:56:06;6.53;;;2.90;;
52668;SDS011;59898;52.786;6.892;2022-10-16T13:59:34;12.10;;;3.05;;
52668;SDS011;59898;52.786;6.892;2022-10-16T14:02:58;10.95;;;4.40;;
52668;SDS011;59898;52.786;6.892;2022-10-16T14:06:25;11.75;;;2.58;;
52668;SDS011;59898;52.786;6.892;2022-10-16T14:09:47;8.02;;;2.30;;
52668;SDS011;59898;52.786;6.892;2022-10-16T14:13:15;9.32;;;2.47;;
52668;SDS011;59898;52.786;6.892;2022-10-16T14:16:39;6.53;;;2.72;;
52668;SDS011;59898;52.786;6.892;2022-10-16T14:20:04;8.00;;;3.05;;
52668;SDS011;59898;52.786;6.892;2022-10-16T14:23:30;6.30;;;3.05;;
52668;SDS011;59898;52.786;6.892;2022-10-16T14:26:52;6.18;;;2.42;;
52668;SDS011;59898;52.786;6.892;2022-10-16T14:30:17;8.63;;;2.40;;
52668;SDS011;59898;52.786;6.892;2022-10-16T14:33:40;4.85;;;2.40;;
52668;SDS011;59898;52.786;6.892;2022-10-16T14:37:18;6.32;;;2.40;;
52668;SDS011;59898;52.786;6.892;2022-10-16T14:40:46;6.25;;;2.40;;
52668;SDS011;59898;52.786;6.892;2022-10-16T14:44:09;7.00;;;2.70;;
52668;SDS011;59898;52.786;6.892;2022-10-16T14:47:31;10.32;;;2.97;;
52668;SDS011;59898;52.786;6.892;2022-10-16T14:50:52;5.97;;;2.78;;
52668;SDS011;59898;52.786;6.892;2022-10-16T14:54:16;10.10;;;2.85;;
52668;SDS011;59898;52.786;6.892;2022-10-16T14:57:38;6.50;;;2.90;;
52668;SDS011;59898;52.786;6.892;2022-10-16T15:00:59;6.53;;;2.40;;
52668;SDS011;59898;52.786;6.892;2022-10-16T15:04:20;10.13;;;4.25;;
52668;SDS011;59898;52.786;6.892;2022-10-16T15:07:41;7.38;;;3.45;;
52668;SDS011;59898;52.786;6.892;2022-10-16T15:11:02;7.28;;;2.70;;
52668;SDS011;59898;52.786;6.892;2022-10-16T15:14:22;8.02;;;2.80;;
52668;SDS011;59898;52.786;6.892;2022-10-16T15:17:43;5.47;;;2.47;;
52668;SDS011;59898;52.786;6.892;2022-10-16T15:21:04;6.25;;;2.20;;
52668;SDS011;59898;52.786;6.892;2022-10-16T15:24:25;8.30;;;3.47;;
52668;SDS011;59898;52.786;6.892;2022-10-16T15:27:45;9.60;;;2.72;;
52668;SDS011;59898;52.786;6.892;2022-10-16T15:31:06;7.90;;;2.65;;
52668;SDS011;59898;52.786;6.892;2022-10-16T15:34:27;10.02;;;3.03;;
52668;SDS011;59898;52.786;6.892;2022-10-16T15:37:47;4.82;;;2.20;;
52668;SDS011;59898;52.786;6.892;2022-10-16T15:41:08;7.25;;;2.50;;
52668;SDS011;59898;52.786;6.892;2022-10-16T15:44:29;8.23;;;2.95;;
52668;SDS011;59898;52.786;6.892;2022-10-16T15:47:50;5.15;;;2.30;;
52668;SDS011;59898;52.786;6.892;2022-10-16T15:51:10;8.90;;;2.60;;
52668;SDS011;59898;52.786;6.892;2022-10-16T15:54:31;14.13;;;3.20;;
52668;SDS011;59898;52.786;6.892;2022-10-16T15:57:52;8.75;;;3.22;;
52668;SDS011;59898;52.786;6.892;2022-10-16T16:01:13;7.32;;;3.42;;
52668;SDS011;59898;52.786;6.892;2022-10-16T16:04:33;5.97;;;2.97;;
52668;SDS011;59898;52.786;6.892;2022-10-16T16:07:54;7.70;;;2.97;;
52668;SDS011;59898;52.786;6.892;2022-10-16T16:11:16;7.32;;;3.30;;
52668;SDS011;59898;52.786;6.892;2022-10-16T16:14:37;7.20;;;3.33;;
52668;SDS011;59898;52.786;6.892;2022-10-16T16:17:58;7.45;;;3.83;;
52668;SDS011;59898;52.786;6.892;2022-10-16T16:21:18;8.77;;;3.30;;
52668;SDS011;59898;52.786;6.892;2022-10-16T16:24:39;5.68;;;2.60;;
52668;SDS011;59898;52.786;6.892;2022-10-16T16:28:00;7.43;;;3.72;;
52668;SDS011;59898;52.786;6.892;2022-10-16T16:31:23;13.07;;;4.68;;
52668;SDS011;59898;52.786;6.892;2022-10-16T16:34:44;10.48;;;4.45;;
52668;SDS011;59898;52.786;6.892;2022-10-16T16:38:05;11.77;;;3.85;;
52668;SDS011;59898;52.786;6.892;2022-10-16T16:41:27;9.45;;;3.63;;
52668;SDS011;59898;52.786;6.892;2022-10-16T16:44:49;7.55;;;4.03;;
52668;SDS011;59898;52.786;6.892;2022-10-16T16:48:10;8.18;;;4.00;;
52668;SDS011;59898;52.786;6.892;2022-10-16T16:51:31;14.60;;;4.47;;
52668;SDS011;59898;52.786;6.892;2022-10-16T16:54:53;12.90;;;7.93;;
52668;SDS011;59898;52.786;6.892;2022-10-16T16:58:13;13.10;;;7.85;;
52668;SDS011;59898;52.786;6.892;2022-10-16T17:01:34;17.27;;;8.10;;
52668;SDS011;59898;52.786;6.892;2022-10-16T17:04:55;12.02;;;6.38;;
52668;SDS011;59898;52.786;6.892;2022-10-16T17:08:17;14.52;;;6.07;;
52668;SDS011;59898;52.786;6.892;2022-10-16T17:11:38;14.50;;;8.25;;
52668;SDS011;59898;52.786;6.892;2022-10-16T17:15:01;12.15;;;5.75;;
52668;SDS011;59898;52.786;6.892;2022-10-16T17:18:23;13.88;;;5.82;;
52668;SDS011;59898;52.786;6.892;2022-10-16T17:21:44;13.35;;;7.63;;
52668;SDS011;59898;52.786;6.892;2022-10-16T17:25:07;15.43;;;8.77;;
52668;SDS011;59898;52.786;6.892;2022-10-16T17:28:28;11.30;;;9.05;;
52668;SDS011;59898;52.786;6.892;2022-10-16T17:31:49;16.10;;;7.50;;
52668;SDS011;59898;52.786;6.892;2022-10-16T17:35:09;19.05;;;8.93;;
52668;SDS011;59898;52.786;6.892;2022-10-16T17:38:30;13.57;;;6.93;;
52668;SDS011;59898;52.786;6.892;2022-10-16T17:41:51;13.05;;;7.07;;
52668;SDS011;59898;52.786;6.892;2022-10-16T17:45:12;9.88;;;6.35;;
52668;SDS011;59898;52.786;6.892;2022-10-16T17:48:44;10.80;;;5.97;;
52668;SDS011;59898;52.786;6.892;2022-10-16T17:52:07;19.17;;;6.43;;
52668;SDS011;59898;52.786;6.892;2022-10-16T17:55:28;14.25;;;8.35;;
52668;SDS011;59898;52.786;6.892;2022-10-16T17:58:49;9.27;;;6.13;;
52668;SDS011;59898;52.786;6.892;2022-10-16T18:02:10;9.53;;;5.60;;
52668;SDS011;59898;52.786;6.892;2022-10-16T18:05:31;13.27;;;5.70;;
52668;SDS011;59898;52.786;6.892;2022-10-16T18:08:52;9.05;;;5.75;;
52668;SDS011;59898;52.786;6.892;2022-10-16T18:12:14;14.32;;;8.15;;
52668;SDS011;59898;52.786;6.892;2022-10-16T18:15:34;12.85;;;6.20;;
52668;SDS011;59898;52.786;6.892;2022-10-16T18:18:55;12.00;;;5.22;;
52668;SDS011;59898;52.786;6.892;2022-10-16T18:22:16;10.18;;;4.53;;
52668;SDS011;59898;52.786;6.892;2022-10-16T18:25:37;10.07;;;6.10;;
52668;SDS011;59898;52.786;6.892;2022-10-16T18:28:58;14.40;;;6.50;;
52668;SDS011;59898;52.786;6.892;2022-10-16T18:32:19;12.48;;;5.88;;
52668;SDS011;59898;52.786;6.892;2022-10-16T18:35:40;14.98;;;5.63;;
52668;SDS011;59898;52.786;6.892;2022-10-16T18:39:03;13.70;;;7.32;;
52668;SDS011;59898;52.786;6.892;2022-10-16T18:42:28;12.82;;;6.50;;
52668;SDS011;59898;52.786;6.892;2022-10-16T18:45:56;11.18;;;6.90;;
52668;SDS011;59898;52.786;6.892;2022-10-16T18:49:18;16.13;;;9.48;;
52668;SDS011;59898;52.786;6.892;2022-10-16T18:52:38;13.63;;;9.68;;
52668;SDS011;59898;52.786;6.892;2022-10-16T18:56:06;11.80;;;7.15;;
52668;SDS011;59898;52.786;6.892;2022-10-16T18:59:27;10.52;;;5.22;;
52668;SDS011;59898;52.786;6.892;2022-10-16T19:02:48;14.23;;;5.78;;
52668;SDS011;59898;52.786;6.892;2022-10-16T19:06:10;10.00;;;5.40;;
52668;SDS011;59898;52.786;6.892;2022-10-16T19:09:33;19.80;;;10.38;;
52668;SDS011;59898;52.786;6.892;2022-10-16T19:12:54;18.77;;;9.43;;
52668;SDS011;59898;52.786;6.892;2022-10-16T19:16:16;31.13;;;8.23;;
52668;SDS011;59898;52.786;6.892;2022-10-16T19:19:38;18.33;;;6.80;;
52668;SDS011;59898;52.786;6.892;2022-10-16T19:22:59;11.55;;;5.30;;
52668;SDS011;59898;52.786;6.892;2022-10-16T19:26:20;10.85;;;5.85;;
52668;SDS011;59898;52.786;6.892;2022-10-16T19:29:41;12.93;;;5.90;;
52668;SDS011;59898;52.786;6.892;2022-10-16T19:33:02;11.10;;;5.80;;
52668;SDS011;59898;52.786;6.892;2022-10-16T19:36:27;15.63;;;7.03;;
52668;SDS011;59898;52.786;6.892;2022-10-16T19:39:49;14.50;;;6.05;;
52668;SDS011;59898;52.786;6.892;2022-10-16T19:43:10;10.43;;;5.90;;
52668;SDS011;59898;52.786;6.892;2022-10-16T19:46:31;15.40;;;7.70;;
52668;SDS011;59898;52.786;6.892;2022-10-16T19:49:53;11.35;;;5.80;;
52668;SDS011;59898;52.786;6.892;2022-10-16T19:53:13;15.18;;;5.45;;
52668;SDS011;59898;52.786;6.892;2022-10-16T19:56:34;15.13;;;6.22;;
52668;SDS011;59898;52.786;6.892;2022-10-16T19:59:56;13.43;;;6.53;;
52668;SDS011;59898;52.786;6.892;2022-10-16T20:03:17;15.07;;;5.57;;
52668;SDS011;59898;52.786;6.892;2022-10-16T20:06:37;14.32;;;7.10;;
52668;SDS011;59898;52.786;6.892;2022-10-16T20:09:58;12.20;;;6.45;;
52668;SDS011;59898;52.786;6.892;2022-10-16T20:13:19;13.13;;;5.20;;
52668;SDS011;59898;52.786;6.892;2022-10-16T20:16:41;9.77;;;6.00;;
52668;SDS011;59898;52.786;6.892;2022-10-16T20:20:02;9.70;;;6.00;;
52668;SDS011;59898;52.786;6.892;2022-10-16T20:23:23;13.52;;;5.82;;
52668;SDS011;59898;52.786;6.892;2022-10-16T20:26:43;11.23;;;5.55;;
52668;SDS011;59898;52.786;6.892;2022-10-16T20:30:04;17.95;;;5.82;;
52668;SDS011;59898;52.786;6.892;2022-10-16T20:33:25;12.98;;;6.30;;
52668;SDS011;59898;52.786;6.892;2022-10-16T20:36:46;11.82;;;6.97;;
52668;SDS011;59898;52.786;6.892;2022-10-16T20:40:09;14.15;;;5.88;;
52668;SDS011;59898;52.786;6.892;2022-10-16T20:43:31;10.40;;;6.03;;
52668;SDS011;59898;52.786;6.892;2022-10-16T20:46:53;16.27;;;6.13;;
52668;SDS011;59898;52.786;6.892;2022-10-16T20:50:14;20.95;;;6.07;;
52668;SDS011;59898;52.786;6.892;2022-10-16T20:53:35;12.73;;;5.15;;
52668;SDS011;59898;52.786;6.892;2022-10-16T20:56:56;11.38;;;5.35;;
52668;SDS011;59898;52.786;6.892;2022-10-16T21:00:17;9.40;;;5.40;;
52668;SDS011;59898;52.786;6.892;2022-10-16T21:03:38;12.50;;;6.95;;
52668;SDS011;59898;52.786;6.892;2022-10-16T21:06:58;15.70;;;5.82;;
52668;SDS011;59898;52.786;6.892;2022-10-16T21:10:19;10.65;;;5.07;;
52668;SDS011;59898;52.786;6.892;2022-10-16T21:13:41;12.95;;;5.38;;
52668;SDS011;59898;52.786;6.892;2022-10-16T21:17:01;15.25;;;5.28;;
52668;SDS011;59898;52.786;6.892;2022-10-16T21:20:23;15.13;;;4.78;;
52668;SDS011;59898;52.786;6.892;2022-10-16T21:23:43;7.43;;;4.00;;
52668;SDS011;59898;52.786;6.892;2022-10-16T21:27:05;12.70;;;4.93;;
52668;SDS011;59898;52.786;6.892;2022-10-16T21:30:26;8.32;;;4.30;;
52668;SDS011;59898;52.786;6.892;2022-10-16T21:33:47;13.18;;;4.57;;
52668;SDS011;59898;52.786;6.892;2022-10-16T21:37:08;16.38;;;5.38;;
52668;SDS011;59898;52.786;6.892;2022-10-16T21:40:29;9.77;;;4.00;;
52668;SDS011;59898;52.786;6.892;2022-10-16T21:43:50;11.40;;;4.40;;
52668;SDS011;59898;52.786;6.892;2022-10-16T21:47:12;16.40;;;5.22;;
52668;SDS011;59898;52.786;6.892;2022-10-16T21:50:32;9.60;;;4.40;;
52668;SDS011;59898;52.786;6.892;2022-10-16T21:53:53;13.20;;;4.60;;